sensor_id;sensor_type;location;lat;lon;timestamp;pressure;altitude;pressure_sealevel;temperature;humidity
13476;BME280;6810;63.824;20.288;2023-02-26T00:01:28;101458.69;;;-1.15;100.00
13476;BME280;6810;63.824;20.288;2023-02-26T00:03:57;101456.06;;;-1.16;100.00
13476;BME280;6810;63.824;20.288;2023-02-26T00:06:25;101461.31;;;-1.16;100.00
13476;BME280;6810;63.824;20.288;2023-02-26T00:08:53;101474.38;;;-1.18;100.00
13476;BME280;6810;63.824;20.288;2023-02-26T00:11:21;101485.69;;;-1.19;100.00
13476;BME280;6810;63.824;20.288;2023-02-26T00:13:48;101490.91;;;-1.19;100.00
13476;BME280;6810;63.824;20.288;2023-02-26T00:18:56;101484.84;;;-1.21;100.00
13476;BME280;6810;63.824;20.288;2023-02-26T00:21:24;101483.94;;;-1.23;100.00
13476;BME280;6810;63.824;20.288;2023-02-26T00:23:52;101445.56;;;-1.49;100.00
13476;BME280;6810;63.824;20.288;2023-02-26T00:26:20;101496.16;;;-1.23;100.00
13476;BME280;6810;63.824;20.288;2023-02-26T00:28:47;101486.56;;;-1.26;100.00
13476;BME280;6810;63.824;20.288;2023-02-26T00:31:15;101486.56;;;-1.26;100.00
13476;BME280;6810;63.824;20.288;2023-02-26T00:33:43;101502.25;;;-1.27;100.00
13476;BME280;6810;63.824;20.288;2023-02-26T00:41:28;101511.81;;;-1.31;100.00
13476;BME280;6810;63.824;20.288;2023-02-26T00:43:55;101511.81;;;-1.32;100.00
13476;BME280;6810;63.824;20.288;2023-02-26T00:46:37;101519.66;;;-1.34;100.00
13476;BME280;6810;63.824;20.288;2023-02-26T00:52:28;101539.69;;;-1.37;100.00
13476;BME280;6810;63.824;20.288;2023-02-26T00:54:57;101537.94;;;-1.40;100.00
13476;BME280;6810;63.824;20.288;2023-02-26T00:57:24;101485.56;;;-1.73;100.00
13476;BME280;6810;63.824;20.288;2023-02-26T00:59:51;101552.75;;;-1.40;100.00
13476;BME280;6810;63.824;20.288;2023-02-26T01:02:19;101556.22;;;-1.40;100.00
13476;BME280;6810;63.824;20.288;2023-02-26T01:04:46;101564.97;;;-1.39;100.00
13476;BME280;6810;63.824;20.288;2023-02-26T01:07:14;101564.97;;;-1.39;100.00
13476;BME280;6810;63.824;20.288;2023-02-26T01:09:44;101555.34;;;-1.43;100.00
13476;BME280;6810;63.824;20.288;2023-02-26T01:12:12;101564.06;;;-1.40;100.00
13476;BME280;6810;63.824;20.288;2023-02-26T01:14:40;101566.69;;;-1.37;100.00
13476;BME280;6810;63.824;20.288;2023-02-26T01:25:06;101578.91;;;-1.34;100.00
13476;BME280;6810;63.824;20.288;2023-02-26T01:27:34;101590.25;;;-1.32;100.00
13476;BME280;6810;63.824;20.288;2023-02-26T01:30:02;101591.13;;;-1.32;100.00
13476;BME280;6810;63.824;20.288;2023-02-26T01:38:46;101585.03;;;-1.29;100.00
13476;BME280;6810;63.824;20.288;2023-02-26T01:46:43;101594.66;;;-1.25;100.00
13476;BME280;6810;63.824;20.288;2023-02-26T01:49:15;101606.84;;;-1.24;100.00
13476;BME280;6810;63.824;20.288;2023-02-26T01:51:51;101624.25;;;-1.23;100.00
13476;BME280;6810;63.824;20.288;2023-02-26T01:54:22;101623.44;;;-1.21;100.00
13476;BME280;6810;63.824;20.288;2023-02-26T01:57:11;101623.44;;;-1.19;100.00
13476;BME280;6810;63.824;20.288;2023-02-26T01:59:43;101626.91;;;-1.17;100.00
13476;BME280;6810;63.824;20.288;2023-02-26T02:02:12;101615.59;;;-1.16;100.00
13476;BME280;6810;63.824;20.288;2023-02-26T02:04:41;101591.13;;;-1.32;100.00
13476;BME280;6810;63.824;20.288;2023-02-26T02:07:10;101603.34;;;-1.20;100.00
13476;BME280;6810;63.824;20.288;2023-02-26T02:09:37;101620.84;;;-1.10;100.00
13476;BME280;6810;63.824;20.288;2023-02-26T02:17:49;101623.47;;;-1.04;100.00
13476;BME280;6810;63.824;20.288;2023-02-26T02:31:16;101635.69;;;-0.97;100.00
13476;BME280;6810;63.824;20.288;2023-02-26T02:34:00;101634.81;;;-0.98;100.00
13476;BME280;6810;63.824;20.288;2023-02-26T02:39:12;101619.97;;;-1.03;100.00
13476;BME280;6810;63.824;20.288;2023-02-26T02:44:44;101634.84;;;-0.92;100.00
13476;BME280;6810;63.824;20.288;2023-02-26T02:47:12;101641.81;;;-0.91;100.00
13476;BME280;6810;63.824;20.288;2023-02-26T02:50:04;101603.38;;;-1.10;100.00
13476;BME280;6810;63.824;20.288;2023-02-26T02:52:50;101631.38;;;-0.88;100.00
13476;BME280;6810;63.824;20.288;2023-02-26T02:55:22;101639.22;;;-0.86;100.00
13476;BME280;6810;63.824;20.288;2023-02-26T02:58:09;101639.22;;;-0.86;100.00
13476;BME280;6810;63.824;20.288;2023-02-26T03:00:42;101631.34;;;-0.91;100.00
13476;BME280;6810;63.824;20.288;2023-02-26T03:05:56;101654.03;;;-0.84;100.00
13476;BME280;6810;63.824;20.288;2023-02-26T03:08:27;101617.38;;;-1.02;100.00
13476;BME280;6810;63.824;20.288;2023-02-26T03:10:55;101606.88;;;-1.11;100.00
13476;BME280;6810;63.824;20.288;2023-02-26T03:13:24;101652.31;;;-0.82;100.00
13476;BME280;6810;63.824;20.288;2023-02-26T03:16:20;101633.97;;;-0.91;100.00
13476;BME280;6810;63.824;20.288;2023-02-26T03:19:29;101657.56;;;-0.80;100.00
13476;BME280;6810;63.824;20.288;2023-02-26T03:22:02;101666.28;;;-0.80;100.00
13476;BME280;6810;63.824;20.288;2023-02-26T03:24:59;101666.28;;;-0.80;100.00
13476;BME280;6810;63.824;20.288;2023-02-26T03:27:42;101673.25;;;-0.79;100.00
13476;BME280;6810;63.824;20.288;2023-02-26T03:33:14;101677.59;;;-0.79;100.00
13476;BME280;6810;63.824;20.288;2023-02-26T03:35:59;101639.16;;;-1.07;100.00
13476;BME280;6810;63.824;20.288;2023-02-26T03:38:39;101668.84;;;-0.96;100.00
13476;BME280;6810;63.824;20.288;2023-02-26T03:41:29;101704.66;;;-0.80;100.00
13476;BME280;6810;63.824;20.288;2023-02-26T03:44:03;101702.91;;;-0.80;100.00
13476;BME280;6810;63.824;20.288;2023-02-26T03:46:36;101703.78;;;-0.79;100.00
13476;BME280;6810;63.824;20.288;2023-02-26T03:49:09;101703.78;;;-0.81;100.00
13476;BME280;6810;63.824;20.288;2023-02-26T03:51:40;101712.50;;;-0.82;100.00
13476;BME280;6810;63.824;20.288;2023-02-26T03:57:47;101738.66;;;-0.80;100.00
13476;BME280;6810;63.824;20.288;2023-02-26T04:00:41;101739.56;;;-0.81;100.00
13476;BME280;6810;63.824;20.288;2023-02-26T04:03:18;101741.28;;;-0.82;100.00
13476;BME280;6810;63.824;20.288;2023-02-26T04:05:50;101735.16;;;-0.82;100.00
13476;BME280;6810;63.824;20.288;2023-02-26T04:08:21;101731.69;;;-0.83;100.00
13476;BME280;6810;63.824;20.288;2023-02-26T04:10:56;101741.28;;;-0.83;100.00
13476;BME280;6810;63.824;20.288;2023-02-26T04:13:25;101746.50;;;-0.83;100.00
13476;BME280;6810;63.824;20.288;2023-02-26T04:15:52;101743.88;;;-0.85;100.00
13476;BME280;6810;63.824;20.288;2023-02-26T04:18:20;101749.09;;;-0.88;100.00
13476;BME280;6810;63.824;20.288;2023-02-26T04:20:47;101756.06;;;-0.87;100.00
13476;BME280;6810;63.824;20.288;2023-02-26T04:23:14;101755.22;;;-0.89;100.00
13476;BME280;6810;63.824;20.288;2023-02-26T04:25:41;101763.94;;;-0.87;100.00
13476;BME280;6810;63.824;20.288;2023-02-26T04:28:09;101769.16;;;-0.88;100.00
13476;BME280;6810;63.824;20.288;2023-02-26T04:30:36;101776.16;;;-0.89;100.00
13476;BME280;6810;63.824;20.288;2023-02-26T04:33:05;101770.03;;;-0.89;100.00
13476;BME280;6810;63.824;20.288;2023-02-26T04:35:32;101762.16;;;-0.95;100.00
13476;BME280;6810;63.824;20.288;2023-02-26T04:37:59;101778.75;;;-0.90;100.00
13476;BME280;6810;63.824;20.288;2023-02-26T04:40:26;101771.75;;;-0.94;100.00
13476;BME280;6810;63.824;20.288;2023-02-26T04:42:53;101788.34;;;-0.89;100.00
13476;BME280;6810;63.824;20.288;2023-02-26T04:45:24;101782.22;;;-0.91;100.00
13476;BME280;6810;63.824;20.288;2023-02-26T04:47:51;101759.47;;;-1.07;100.00
13476;BME280;6810;63.824;20.288;2023-02-26T04:50:18;101787.44;;;-0.91;100.00
13476;BME280;6810;63.824;20.288;2023-02-26T04:52:48;101790.94;;;-0.95;100.00
13476;BME280;6810;63.824;20.288;2023-02-26T04:55:15;101794.44;;;-0.92;100.00
13476;BME280;6810;63.824;20.288;2023-02-26T04:57:42;101803.13;;;-0.93;100.00
13476;BME280;6810;63.824;20.288;2023-02-26T05:00:10;101792.66;;;-0.94;100.00
13476;BME280;6810;63.824;20.288;2023-02-26T05:02:38;101794.44;;;-0.93;100.00
13476;BME280;6810;63.824;20.288;2023-02-26T05:05:06;101802.28;;;-0.95;100.00
13476;BME280;6810;63.824;20.288;2023-02-26T05:07:33;101805.72;;;-0.97;100.00
13476;BME280;6810;63.824;20.288;2023-02-26T05:10:00;101810.97;;;-0.96;100.00
13476;BME280;6810;63.824;20.288;2023-02-26T05:12:27;101814.47;;;-0.95;100.00
13476;BME280;6810;63.824;20.288;2023-02-26T05:14:54;101810.97;;;-0.96;100.00
13476;BME280;6810;63.824;20.288;2023-02-26T05:17:22;101811.84;;;-0.97;100.00
13476;BME280;6810;63.824;20.288;2023-02-26T05:19:49;101817.09;;;-0.97;100.00
13476;BME280;6810;63.824;20.288;2023-02-26T05:22:16;101782.09;;;-1.15;100.00
13476;BME280;6810;63.824;20.288;2023-02-26T05:24:43;101821.44;;;-0.97;100.00
13476;BME280;6810;63.824;20.288;2023-02-26T05:27:10;101824.03;;;-0.99;100.00
13476;BME280;6810;63.824;20.288;2023-02-26T05:29:42;101828.38;;;-1.01;100.00
13476;BME280;6810;63.824;20.288;2023-02-26T05:32:12;101837.13;;;-0.97;100.00
13476;BME280;6810;63.824;20.288;2023-02-26T05:34:39;101829.28;;;-0.97;100.00
13476;BME280;6810;63.824;20.288;2023-02-26T05:37:06;101842.34;;;-0.99;100.00
13476;BME280;6810;63.824;20.288;2023-02-26T05:39:33;101816.09;;;-1.15;100.00
13476;BME280;6810;63.824;20.288;2023-02-26T05:42:01;101844.09;;;-0.98;100.00
13476;BME280;6810;63.824;20.288;2023-02-26T05:44:28;101848.47;;;-0.98;100.00
13476;BME280;6810;63.824;20.288;2023-02-26T05:46:55;101851.06;;;-1.00;100.00
13476;BME280;6810;63.824;20.288;2023-02-26T05:49:22;101840.59;;;-1.00;100.00
13476;BME280;6810;63.824;20.288;2023-02-26T05:51:48;101832.75;;;-1.00;100.00
13476;BME280;6810;63.824;20.288;2023-02-26T05:54:16;101836.22;;;-1.01;100.00
13476;BME280;6810;63.824;20.288;2023-02-26T05:56:43;101835.38;;;-1.00;100.00
13476;BME280;6810;63.824;20.288;2023-02-26T05:59:10;101835.38;;;-1.01;100.00
13476;BME280;6810;63.824;20.288;2023-02-26T06:01:37;101828.38;;;-1.02;100.00
13476;BME280;6810;63.824;20.288;2023-02-26T06:04:04;101845.84;;;-1.01;100.00
13476;BME280;6810;63.824;20.288;2023-02-26T06:06:32;101818.72;;;-1.12;100.00
13476;BME280;6810;63.824;20.288;2023-02-26T06:08:59;101847.56;;;-1.03;100.00
13476;BME280;6810;63.824;20.288;2023-02-26T06:11:29;101851.03;;;-1.04;100.00
13476;BME280;6810;63.824;20.288;2023-02-26T06:13:59;101839.69;;;-1.08;100.00
13476;BME280;6810;63.824;20.288;2023-02-26T06:16:26;101862.34;;;-1.05;100.00
13476;BME280;6810;63.824;20.288;2023-02-26T06:18:54;101864.97;;;-1.05;100.00
13476;BME280;6810;63.824;20.288;2023-02-26T06:21:21;101863.22;;;-1.08;100.00
13476;BME280;6810;63.824;20.288;2023-02-26T06:23:48;101836.94;;;-1.24;100.00
13476;BME280;6810;63.824;20.288;2023-02-26T06:26:15;101865.78;;;-1.14;100.00
13476;BME280;6810;63.824;20.288;2023-02-26T06:28:42;101864.94;;;-1.10;100.00
13476;BME280;6810;63.824;20.288;2023-02-26T06:31:09;101866.69;;;-1.10;100.00
13476;BME280;6810;63.824;20.288;2023-02-26T06:33:36;101872.78;;;-1.11;100.00
13476;BME280;6810;63.824;20.288;2023-02-26T06:36:04;101881.50;;;-1.12;100.00
13476;BME280;6810;63.824;20.288;2023-02-26T06:38:31;101885.81;;;-1.14;100.00
13476;BME280;6810;63.824;20.288;2023-02-26T06:40:58;101884.94;;;-1.18;100.00
13476;BME280;6810;63.824;20.288;2023-02-26T06:43:25;101881.44;;;-1.18;100.00
13476;BME280;6810;63.824;20.288;2023-02-26T06:45:52;101891.00;;;-1.22;100.00
13476;BME280;6810;63.824;20.288;2023-02-26T06:48:19;101891.00;;;-1.22;100.00
13476;BME280;6810;63.824;20.288;2023-02-26T06:50:46;101886.63;;;-1.24;100.00
13476;BME280;6810;63.824;20.288;2023-02-26T06:53:13;101899.69;;;-1.26;100.00
13476;BME280;6810;63.824;20.288;2023-02-26T06:55:49;101892.72;;;-1.28;100.00
13476;BME280;6810;63.824;20.288;2023-02-26T06:58:16;101890.06;;;-1.30;100.00
13476;BME280;6810;63.824;20.288;2023-02-26T07:00:43;101893.53;;;-1.34;100.00
13476;BME280;6810;63.824;20.288;2023-02-26T07:03:12;101898.72;;;-1.37;100.00
13476;BME280;6810;63.824;20.288;2023-02-26T07:05:40;101875.88;;;-1.59;100.00
13476;BME280;6810;63.824;20.288;2023-02-26T07:08:08;101906.53;;;-1.40;100.00
13476;BME280;6810;63.824;20.288;2023-02-26T07:10:36;101911.75;;;-1.41;100.00
13476;BME280;6810;63.824;20.288;2023-02-26T07:13:03;101918.69;;;-1.45;100.00
13476;BME280;6810;63.824;20.288;2023-02-26T07:15:30;101918.66;;;-1.48;100.00
13476;BME280;6810;63.824;20.288;2023-02-26T07:17:57;101929.09;;;-1.48;100.00
13476;BME280;6810;63.824;20.288;2023-02-26T07:20:26;101928.22;;;-1.51;100.00
13476;BME280;6810;63.824;20.288;2023-02-26T07:22:54;101902.78;;;-1.66;100.00
13476;BME280;6810;63.824;20.288;2023-02-26T07:25:21;101934.25;;;-1.55;100.00
13476;BME280;6810;63.824;20.288;2023-02-26T07:27:48;101926.34;;;-1.63;100.00
13476;BME280;6810;63.824;20.288;2023-02-26T07:30:15;101944.66;;;-1.60;100.00
13476;BME280;6810;63.824;20.288;2023-02-26T07:32:42;101935.88;;;-1.66;100.00
13476;BME280;6810;63.824;20.288;2023-02-26T07:35:09;101941.97;;;-1.67;100.00
13476;BME280;6810;63.824;20.288;2023-02-26T07:37:37;101949.81;;;-1.67;100.00
13476;BME280;6810;63.824;20.288;2023-02-26T07:40:05;101953.31;;;-1.68;100.00
13476;BME280;6810;63.824;20.288;2023-02-26T07:42:32;101953.25;;;-1.71;100.00
13476;BME280;6810;63.824;20.288;2023-02-26T07:44:59;101944.53;;;-1.72;100.00
13476;BME280;6810;63.824;20.288;2023-02-26T07:47:26;101941.91;;;-1.75;100.00
13476;BME280;6810;63.824;20.288;2023-02-26T07:49:53;101939.25;;;-1.78;100.00
13476;BME280;6810;63.824;20.288;2023-02-26T07:52:20;101946.22;;;-1.77;100.00
13476;BME280;6810;63.824;20.288;2023-02-26T07:54:47;101941.84;;;-1.80;100.00
13476;BME280;6810;63.824;20.288;2023-02-26T07:57:14;101940.09;;;-1.82;100.00
13476;BME280;6810;63.824;20.288;2023-02-26T07:59:41;101949.66;;;-1.81;100.00
13476;BME280;6810;63.824;20.288;2023-02-26T08:02:09;101939.97;;;-1.91;100.00
13476;BME280;6810;63.824;20.288;2023-02-26T08:04:36;101956.59;;;-1.83;100.00
13476;BME280;6810;63.824;20.288;2023-02-26T08:07:03;101953.13;;;-1.85;100.00
13476;BME280;6810;63.824;20.288;2023-02-26T08:09:30;101948.75;;;-1.85;100.00
13476;BME280;6810;63.824;20.288;2023-02-26T08:11:57;101957.44;;;-1.86;100.00
13476;BME280;6810;63.824;20.288;2023-02-26T08:14:24;101958.34;;;-1.85;100.00
13476;BME280;6810;63.824;20.288;2023-02-26T08:16:52;101953.94;;;-1.86;100.00
13476;BME280;6810;63.824;20.288;2023-02-26T08:19:19;101953.03;;;-1.91;100.00
13476;BME280;6810;63.824;20.288;2023-02-26T08:21:46;101913.59;;;-2.12;100.00
13476;BME280;6810;63.824;20.288;2023-02-26T08:24:15;101953.91;;;-1.91;100.00
13476;BME280;6810;63.824;20.288;2023-02-26T08:26:42;101900.47;;;-2.18;100.00
13476;BME280;6810;63.824;20.288;2023-02-26T08:29:09;101972.25;;;-1.86;100.00
13476;BME280;6810;63.824;20.288;2023-02-26T08:31:36;101968.78;;;-1.85;100.00
13476;BME280;6810;63.824;20.288;2023-02-26T08:34:03;101974.00;;;-1.85;100.00
13476;BME280;6810;63.824;20.288;2023-02-26T08:36:31;101975.75;;;-1.84;100.00
13476;BME280;6810;63.824;20.288;2023-02-26T08:38:58;101987.94;;;-1.83;100.00
13476;BME280;6810;63.824;20.288;2023-02-26T08:41:25;101966.09;;;-1.93;100.00
13476;BME280;6810;63.824;20.288;2023-02-26T08:43:55;101984.50;;;-1.82;100.00
13476;BME280;6810;63.824;20.288;2023-02-26T08:46:22;101988.84;;;-1.83;100.00
13476;BME280;6810;63.824;20.288;2023-02-26T08:48:49;101993.22;;;-1.80;100.00
13476;BME280;6810;63.824;20.288;2023-02-26T08:51:16;101999.31;;;-1.80;100.00
13476;BME280;6810;63.824;20.288;2023-02-26T08:53:44;101984.53;;;-1.79;100.00
13476;BME280;6810;63.824;20.288;2023-02-26T08:56:12;101991.50;;;-1.78;100.00
13476;BME280;6810;63.824;20.288;2023-02-26T08:58:39;101984.56;;;-1.76;100.00
13476;BME280;6810;63.824;20.288;2023-02-26T09:01:07;101981.09;;;-1.75;100.00
13476;BME280;6810;63.824;20.288;2023-02-26T09:03:34;101986.31;;;-1.75;100.00
13476;BME280;6810;63.824;20.288;2023-02-26T09:06:01;101939.84;;;-2.00;100.00
13476;BME280;6810;63.824;20.288;2023-02-26T09:08:31;101978.50;;;-1.72;100.00
13476;BME280;6810;63.824;20.288;2023-02-26T09:11:00;101976.75;;;-1.73;100.00
13476;BME280;6810;63.824;20.288;2023-02-26T09:13:28;101984.66;;;-1.68;100.00
13476;BME280;6810;63.824;20.288;2023-02-26T09:15:56;101993.38;;;-1.66;100.00
13476;BME280;6810;63.824;20.288;2023-02-26T09:18:23;101993.38;;;-1.65;100.00
13476;BME280;6810;63.824;20.288;2023-02-26T09:20:50;101994.28;;;-1.63;100.00
13476;BME280;6810;63.824;20.288;2023-02-26T09:23:18;101994.31;;;-1.60;100.00
13476;BME280;6810;63.824;20.288;2023-02-26T09:25:45;101999.56;;;-1.58;100.00
13476;BME280;6810;63.824;20.288;2023-02-26T09:28:12;101990.88;;;-1.57;100.00
13476;BME280;6810;63.824;20.288;2023-02-26T09:30:39;101990.03;;;-1.55;100.00
13476;BME280;6810;63.824;20.288;2023-02-26T09:33:06;101990.97;;;-1.51;100.00
13476;BME280;6810;63.824;20.288;2023-02-26T09:35:33;101982.25;;;-1.50;100.00
13476;BME280;6810;63.824;20.288;2023-02-26T09:38:00;101984.88;;;-1.49;100.00
13476;BME280;6810;63.824;20.288;2023-02-26T09:41:00;101984.03;;;-1.45;100.00
13476;BME280;6810;63.824;20.288;2023-02-26T09:43:46;101983.22;;;-1.42;100.00
13476;BME280;6810;63.824;20.288;2023-02-26T09:49:45;101989.34;;;-1.37;100.00
13476;BME280;6810;63.824;20.288;2023-02-26T09:51:48;101990.25;;;-1.35;100.00
13476;BME280;6810;63.824;20.288;2023-02-26T09:54:29;101992.88;;;-1.32;100.00
13476;BME280;6810;63.824;20.288;2023-02-26T09:56:59;101992.94;;;-1.28;100.00
13476;BME280;6810;63.824;20.288;2023-02-26T09:59:29;101999.09;;;-1.23;100.00
13476;BME280;6810;63.824;20.288;2023-02-26T10:02:06;102007.88;;;-1.18;100.00
13476;BME280;6810;63.824;20.288;2023-02-26T10:07:49;101994.00;;;-1.06;100.00
13476;BME280;6810;63.824;20.288;2023-02-26T10:10:28;101993.19;;;-1.01;100.00
13476;BME280;6810;63.824;20.288;2023-02-26T10:12:59;101990.66;;;-0.95;100.00
13476;BME280;6810;63.824;20.288;2023-02-26T10:18:26;101993.34;;;-0.84;100.00
13476;BME280;6810;63.824;20.288;2023-02-26T10:21:01;101978.53;;;-0.79;100.00
13476;BME280;6810;63.824;20.288;2023-02-26T10:23:44;101997.78;;;-0.74;100.00
13476;BME280;6810;63.824;20.288;2023-02-26T10:26:22;101968.94;;;-0.83;100.00
13476;BME280;6810;63.824;20.288;2023-02-26T10:29:21;101983.94;;;-0.64;100.00
13476;BME280;6810;63.824;20.288;2023-02-26T10:32:05;101982.19;;;-0.61;100.00
13476;BME280;6810;63.824;20.288;2023-02-26T10:34:43;101968.16;;;-0.69;100.00
13476;BME280;6810;63.824;20.288;2023-02-26T10:37:18;101989.25;;;-0.52;100.00
13476;BME280;6810;63.824;20.288;2023-02-26T10:42:26;101993.63;;;-0.45;100.00
13476;BME280;6810;63.824;20.288;2023-02-26T10:50:58;101987.59;;;-0.34;100.00
13476;BME280;6810;63.824;20.288;2023-02-26T10:53:27;101964.84;;;-0.44;100.00
13476;BME280;6810;63.824;20.288;2023-02-26T10:56:03;101983.28;;;-0.29;100.00
13476;BME280;6810;63.824;20.288;2023-02-26T10:58:31;101992.06;;;-0.18;100.00
13476;BME280;6810;63.824;20.288;2023-02-26T11:00:58;101992.09;;;-0.15;100.00
13476;BME280;6810;63.824;20.288;2023-02-26T11:03:32;101995.63;;;-0.08;100.00
13476;BME280;6810;63.824;20.288;2023-02-26T11:06:01;101994.75;;;-0.07;100.00
13476;BME280;6810;63.824;20.288;2023-02-26T11:08:43;101993.94;;;0.02;100.00
13476;BME280;6810;63.824;20.288;2023-02-26T11:11:42;101998.31;;;0.09;100.00
13476;BME280;6810;63.824;20.288;2023-02-26T11:14:11;102003.59;;;0.15;100.00
13476;BME280;6810;63.824;20.288;2023-02-26T11:16:45;102001.00;;;0.19;100.00
13476;BME280;6810;63.824;20.288;2023-02-26T11:19:15;102000.13;;;0.28;100.00
13476;BME280;6810;63.824;20.288;2023-02-26T11:21:44;102001.94;;;0.33;100.00
13476;BME280;6810;63.824;20.288;2023-02-26T11:24:27;101995.81;;;0.40;100.00
13476;BME280;6810;63.824;20.288;2023-02-26T11:26:57;101990.59;;;0.45;100.00
13476;BME280;6810;63.824;20.288;2023-02-26T11:29:25;101985.34;;;0.46;100.00
13476;BME280;6810;63.824;20.288;2023-02-26T11:31:53;101993.25;;;0.57;100.00
13476;BME280;6810;63.824;20.288;2023-02-26T11:34:25;101995.03;;;0.62;100.00
13476;BME280;6810;63.824;20.288;2023-02-26T11:36:54;101981.03;;;0.66;100.00
13476;BME280;6810;63.824;20.288;2023-02-26T11:39:25;101987.19;;;0.71;100.00
13476;BME280;6810;63.824;20.288;2023-02-26T11:41:56;101982.81;;;0.76;100.00
13476;BME280;6810;63.824;20.288;2023-02-26T11:44:42;101974.97;;;0.82;100.00
13476;BME280;6810;63.824;20.288;2023-02-26T11:47:13;101987.19;;;0.88;100.00
13476;BME280;6810;63.824;20.288;2023-02-26T11:49:49;101976.72;;;0.91;100.00
13476;BME280;6810;63.824;20.288;2023-02-26T11:52:22;101980.22;;;0.96;100.00
13476;BME280;6810;63.824;20.288;2023-02-26T11:54:59;101977.59;;;0.99;100.00
13476;BME280;6810;63.824;20.288;2023-02-26T11:57:28;101979.34;;;1.01;100.00
13476;BME280;6810;63.824;20.288;2023-02-26T11:59:58;101973.22;;;1.04;100.00
13476;BME280;6810;63.824;20.288;2023-02-26T12:02:31;101942.59;;;0.91;100.00
13476;BME280;6810;63.824;20.288;2023-02-26T12:05:03;101960.13;;;1.02;100.00
13476;BME280;6810;63.824;20.288;2023-02-26T12:07:31;101972.34;;;1.12;100.00
13476;BME280;6810;63.824;20.288;2023-02-26T12:09:58;101971.47;;;1.18;100.00
13476;BME280;6810;63.824;20.288;2023-02-26T12:12:41;101970.59;;;1.22;100.00
13476;BME280;6810;63.824;20.288;2023-02-26T12:15:28;101973.22;;;1.23;100.00
13476;BME280;6810;63.824;20.288;2023-02-26T12:18:22;101972.34;;;1.24;100.00
13476;BME280;6810;63.824;20.288;2023-02-26T12:26:32;101959.22;;;1.26;100.00
13476;BME280;6810;63.824;20.288;2023-02-26T12:37:27;101954.84;;;1.29;100.00
13476;BME280;6810;63.824;20.288;2023-02-26T12:45:57;101939.97;;;1.31;100.00
13476;BME280;6810;63.824;20.288;2023-02-26T12:51:24;101941.72;;;1.31;100.00
13476;BME280;6810;63.824;20.288;2023-02-26T12:54:02;101947.84;;;1.33;100.00
13476;BME280;6810;63.824;20.288;2023-02-26T13:02:00;101936.47;;;1.34;100.00
13476;BME280;6810;63.824;20.288;2023-02-26T13:07:13;101950.47;;;1.37;100.00
13476;BME280;6810;63.824;20.288;2023-02-26T13:12:50;101947.84;;;1.39;100.00
13476;BME280;6810;63.824;20.288;2023-02-26T13:15:47;101947.84;;;1.39;100.00
13476;BME280;6810;63.824;20.288;2023-02-26T13:18:30;101938.19;;;1.39;100.00
13476;BME280;6810;63.824;20.288;2023-02-26T13:21:03;101923.34;;;1.31;100.00
13476;BME280;6810;63.824;20.288;2023-02-26T13:23:44;101925.94;;;1.31;100.00
13476;BME280;6810;63.824;20.288;2023-02-26T13:26:13;101938.19;;;1.44;100.00
13476;BME280;6810;63.824;20.288;2023-02-26T13:31:17;101947.81;;;1.48;100.00
13476;BME280;6810;63.824;20.288;2023-02-26T13:33:48;101939.94;;;1.46;100.00
13476;BME280;6810;63.824;20.288;2023-02-26T13:36:19;101940.78;;;1.51;100.00
13476;BME280;6810;63.824;20.288;2023-02-26T13:47:59;101939.03;;;1.61;100.00
13476;BME280;6810;63.824;20.288;2023-02-26T13:53:35;101942.53;;;1.64;100.00
13476;BME280;6810;63.824;20.288;2023-02-26T14:04:24;101925.88;;;1.67;100.00
13476;BME280;6810;63.824;20.288;2023-02-26T14:07:44;101930.28;;;1.68;100.00
13476;BME280;6810;63.824;20.288;2023-02-26T14:10:16;101925.00;;;1.68;100.00
13476;BME280;6810;63.824;20.288;2023-02-26T14:13:02;101925.00;;;1.66;100.00
13476;BME280;6810;63.824;20.288;2023-02-26T14:15:48;101928.50;;;1.64;100.00
13476;BME280;6810;63.824;20.288;2023-02-26T14:18:30;101927.66;;;1.65;100.00
13476;BME280;6810;63.824;20.288;2023-02-26T14:23:57;101921.50;;;1.63;100.00
13476;BME280;6810;63.824;20.288;2023-02-26T14:26:31;101921.50;;;1.66;100.00
13476;BME280;6810;63.824;20.288;2023-02-26T14:31:59;101919.75;;;1.68;100.00
13476;BME280;6810;63.824;20.288;2023-02-26T14:34:34;101927.63;;;1.68;100.00
13476;BME280;6810;63.824;20.288;2023-02-26T14:37:06;101911.00;;;1.66;100.00
13476;BME280;6810;63.824;20.288;2023-02-26T14:40:29;101916.25;;;1.66;100.00
13476;BME280;6810;63.824;20.288;2023-02-26T14:45:36;101897.88;;;1.63;100.00
13476;BME280;6810;63.824;20.288;2023-02-26T14:48:07;101882.16;;;1.51;100.00
13476;BME280;6810;63.824;20.288;2023-02-26T14:56:10;101890.00;;;1.57;100.00
13476;BME280;6810;63.824;20.288;2023-02-26T14:59:23;101897.00;;;1.55;100.00
13476;BME280;6810;63.824;20.288;2023-02-26T15:11:12;101904.91;;;1.41;100.00
13476;BME280;6810;63.824;20.288;2023-02-26T15:25:33;101876.06;;;1.31;100.00
13476;BME280;6810;63.824;20.288;2023-02-26T15:28:03;101879.56;;;1.27;100.00
13476;BME280;6810;63.824;20.288;2023-02-26T15:30:32;101850.72;;;1.10;100.00
13476;BME280;6810;63.824;20.288;2023-02-26T15:33:03;101873.47;;;1.22;100.00
13476;BME280;6810;63.824;20.288;2023-02-26T15:35:31;101871.69;;;1.19;100.00
13476;BME280;6810;63.824;20.288;2023-02-26T15:38:01;101874.31;;;1.18;100.00
13476;BME280;6810;63.824;20.288;2023-02-26T15:40:33;101874.31;;;1.16;100.00
13476;BME280;6810;63.824;20.288;2023-02-26T15:43:01;101876.09;;;1.16;100.00
13476;BME280;6810;63.824;20.288;2023-02-26T15:45:44;101853.34;;;1.00;100.00
13476;BME280;6810;63.824;20.288;2023-02-26T15:48:16;101874.34;;;1.12;100.00
13476;BME280;6810;63.824;20.288;2023-02-26T15:50:47;101872.59;;;1.11;100.00
13476;BME280;6810;63.824;20.288;2023-02-26T15:56:31;101868.22;;;1.08;100.00
13476;BME280;6810;63.824;20.288;2023-02-26T15:59:02;101868.22;;;1.08;100.00
13476;BME280;6810;63.824;20.288;2023-02-26T16:01:30;101876.97;;;1.07;100.00